Nearby METAR Reports

 

CYOW - Ottawa Intl, Ontario, Canada
Distance from station: N 33km
Updated: 19/08/2018 01:00
Clear
Clear
 Wind from N
Wind: N 11 km/h
Temperature: 18°C
Dew Point: 16°C
Humidity: 88%
Barometer: 29.99 inHg , 1015.6 hPa
Clouds: Clear
Visibility: 24 km
2018/08/19 05:00 CYOW 190500Z 36006KT 15SM SKC 18/16 A2999 RMK SLP156 DENSITY ALT 800FT
CYGK - Kingston Arpt, Ontario, Canada
Distance from station: SW 117km
Updated: 18/08/2018 23:00
NOT Current
Few Clouds
Few Clouds
 Wind from NNW
Wind: NNW 7 km/h
Temperature: 17°C
Dew Point: 17°C
Humidity: 100%
Barometer: 29.97 inHg , 1014.9 hPa
Clouds: Few Clouds
Visibility: 24 km
Cloud details: Few Clouds 6706 m
2018/08/19 03:00 CYGK 190300Z 33004KT 15SM FEW220 17/17 A2997 RMK CI2 LAST STFD OBS/NEXT 191000 UTC SLP151 DENSITY ALT 600FT
KMSS - Massena, New York, USA
Distance from station: E 62km
Updated: 19/08/2018 01:13
Few Clouds
Few Clouds
 Wind from calm
Wind: Calm
Temperature: 14°C
Dew Point: 14°C
Humidity: 100%
Barometer: 29.99 inHg , 1015.6 hPa
Clouds: Few Clouds
Visibility: 16 km
Cloud details: Few Clouds 61 m
2018/08/19 05:13 KMSS 190513Z AUTO 00000KT 10SM FEW002 14/14 A2999 RMK AO2 T01440144